createdAt,value
2023-02-12T00:01:24.738Z,5.51
2023-02-12T00:03:52.190Z,5.52
2023-02-12T00:06:19.515Z,5.52
2023-02-12T00:08:52.949Z,5.52
2023-02-12T00:11:26.513Z,5.53
2023-02-12T00:13:56.693Z,5.54
2023-02-12T00:16:26.674Z,5.55
2023-02-12T00:21:41.643Z,5.55
2023-02-12T00:24:08.967Z,5.55
2023-02-12T00:26:36.619Z,5.55
2023-02-12T00:29:03.883Z,5.55
2023-02-12T00:31:31.770Z,5.56
2023-02-12T00:33:59.772Z,5.55
2023-02-12T00:36:30.297Z,5.55
2023-02-12T00:38:58.770Z,5.54
2023-02-12T00:41:26.855Z,5.53
2023-02-12T00:43:58.853Z,5.50
2023-02-12T00:46:27.055Z,5.47
2023-02-12T00:48:56.964Z,5.47
2023-02-12T00:51:24.304Z,5.45
2023-02-12T00:53:51.619Z,5.43
2023-02-12T00:56:20.068Z,5.43
2023-02-12T00:58:49.676Z,5.41
2023-02-12T01:01:17.832Z,5.39
2023-02-12T01:03:45.108Z,5.38
2023-02-12T01:06:12.376Z,5.38
2023-02-12T01:08:39.830Z,5.38
2023-02-12T01:11:07.751Z,5.38
2023-02-12T01:13:35.537Z,5.38
2023-02-12T01:16:15.196Z,5.37
2023-02-12T01:18:42.829Z,5.36
2023-02-12T01:21:22.713Z,5.37
2023-02-12T01:23:50.591Z,5.36
2023-02-12T01:26:19.487Z,5.36
2023-02-12T01:28:50.930Z,5.36
2023-02-12T01:31:23.321Z,5.37
2023-02-12T01:33:52.798Z,5.39
2023-02-12T01:36:21.343Z,5.40
2023-02-12T01:38:49.562Z,5.40
2023-02-12T01:41:23.307Z,5.40
2023-02-12T01:44:15.842Z,5.40
2023-02-12T01:46:45.266Z,5.39
2023-02-12T01:49:21.142Z,5.39
2023-02-12T01:51:53.927Z,5.39
2023-02-12T01:54:25.847Z,5.39
2023-02-12T01:56:53.899Z,5.38
2023-02-12T01:59:22.724Z,5.37
2023-02-12T02:01:50.118Z,5.37
2023-02-12T02:04:23.263Z,5.36
2023-02-12T02:07:03.276Z,5.34
2023-02-12T02:09:33.624Z,5.32
2023-02-12T02:12:21.501Z,5.31
2023-02-12T02:14:50.951Z,5.28
2023-02-12T02:17:33.398Z,5.25
2023-02-12T02:20:03.971Z,5.24
2023-02-12T02:22:43.772Z,5.23
2023-02-12T02:25:16.958Z,5.21
2023-02-12T02:27:56.674Z,5.21
2023-02-12T02:30:27.094Z,5.22
2023-02-12T02:33:24.917Z,5.21
2023-02-12T02:35:58.447Z,5.22
2023-02-12T02:38:40.041Z,5.19
2023-02-12T02:41:17.394Z,5.19
2023-02-12T02:43:49.097Z,5.19
2023-02-12T02:46:20.782Z,5.17
2023-02-12T02:48:54.371Z,5.18
2023-02-12T02:51:27.520Z,5.17
2023-02-12T02:54:08.476Z,5.14
2023-02-12T02:56:39.497Z,5.13
2023-02-12T02:59:17.886Z,5.12
2023-02-12T03:02:03.065Z,5.12
2023-02-12T03:04:35.504Z,5.13
2023-02-12T03:07:14.001Z,5.11
2023-02-12T03:09:47.160Z,5.12
2023-02-12T03:12:20.951Z,5.12
2023-02-12T03:14:55.050Z,5.12
2023-02-12T03:17:30.300Z,5.11
2023-02-12T03:20:05.212Z,5.09
2023-02-12T03:22:36.821Z,5.08
2023-02-12T03:25:10.076Z,5.07
2023-02-12T03:27:40.881Z,5.07
2023-02-12T03:30:08.891Z,5.05
2023-02-12T03:32:38.820Z,5.04
2023-02-12T03:35:25.405Z,5.05
2023-02-12T03:38:28.371Z,5.03
2023-02-12T03:41:09.350Z,5.01
2023-02-12T03:44:05.577Z,5.00
2023-02-12T03:46:48.314Z,4.98
2023-02-12T03:49:24.080Z,4.97
2023-02-12T03:51:54.069Z,4.96
2023-02-12T03:54:22.830Z,4.96
2023-02-12T03:57:14.074Z,4.97
2023-02-12T03:59:41.659Z,4.98
2023-02-12T04:02:09.503Z,4.98
2023-02-12T04:04:38.765Z,4.96
2023-02-12T04:07:06.933Z,4.95
2023-02-12T04:09:34.591Z,4.97
2023-02-12T04:12:27.246Z,4.96
2023-02-12T04:15:11.657Z,4.96
2023-02-12T04:17:57.047Z,4.95
2023-02-12T04:20:46.674Z,4.95
2023-02-12T04:23:22.368Z,4.94
2023-02-12T04:25:59.290Z,4.94
2023-02-12T04:28:56.338Z,4.91
2023-02-12T04:31:44.081Z,4.89
2023-02-12T04:34:30.176Z,4.88
2023-02-12T04:37:00.705Z,4.88
2023-02-12T04:39:33.824Z,4.87
2023-02-12T04:42:02.559Z,4.87
2023-02-12T04:44:35.537Z,4.87
2023-02-12T04:47:02.838Z,4.88
2023-02-12T04:49:30.326Z,4.89
2023-02-12T04:51:57.699Z,4.92
2023-02-12T04:54:25.188Z,4.91
2023-02-12T04:56:52.800Z,4.90
2023-02-12T04:59:20.072Z,4.87
2023-02-12T05:01:47.433Z,4.84
2023-02-12T05:04:16.827Z,4.83
2023-02-12T05:06:45.276Z,4.82
2023-02-12T05:09:18.160Z,4.80
2023-02-12T05:11:46.005Z,4.79
2023-02-12T05:14:13.886Z,4.80
2023-02-12T05:16:41.309Z,4.79
2023-02-12T05:19:09.825Z,4.79
2023-02-12T05:21:38.374Z,4.79
2023-02-12T05:24:06.098Z,4.80
2023-02-12T05:26:34.126Z,4.80
2023-02-12T05:29:01.743Z,4.81
2023-02-12T05:31:29.134Z,4.81
2023-02-12T05:33:56.465Z,4.82
2023-02-12T05:36:25.081Z,4.84
2023-02-12T05:38:53.812Z,4.83
2023-02-12T05:41:24.316Z,4.84
2023-02-12T05:43:52.528Z,4.84
2023-02-12T05:46:21.276Z,4.83
2023-02-12T05:48:48.890Z,4.84
2023-02-12T05:51:23.101Z,4.84
2023-02-12T05:53:52.479Z,4.84
2023-02-12T05:56:23.139Z,4.84
2023-02-12T05:59:11.922Z,4.85
2023-02-12T06:01:41.267Z,4.84
2023-02-12T06:04:14.449Z,4.83
2023-02-12T06:06:42.531Z,4.80
2023-02-12T06:09:11.611Z,4.78
2023-02-12T06:11:39.473Z,4.75
2023-02-12T06:14:09.285Z,4.73
2023-02-12T06:16:36.847Z,4.72
2023-02-12T06:19:05.292Z,4.72
2023-02-12T06:21:34.369Z,4.71
2023-02-12T06:24:01.687Z,4.69
2023-02-12T06:26:29.245Z,4.67
2023-02-12T06:28:56.658Z,4.65
2023-02-12T06:31:27.778Z,4.66
2023-02-12T06:34:02.758Z,4.65
2023-02-12T06:36:33.035Z,4.67
2023-02-12T06:39:04.133Z,4.67
2023-02-12T06:41:31.694Z,4.69
2023-02-12T06:43:58.965Z,4.68
2023-02-12T06:46:26.826Z,4.68
2023-02-12T06:48:55.825Z,4.69
2023-02-12T06:51:24.025Z,4.70
2023-02-12T06:53:53.022Z,4.71
2023-02-12T06:56:22.320Z,4.73
2023-02-12T06:58:59.575Z,4.72
2023-02-12T07:01:29.934Z,4.71
2023-02-12T07:04:02.868Z,4.71
2023-02-12T07:06:31.579Z,4.72
2023-02-12T07:08:59.159Z,4.71
2023-02-12T07:11:28.370Z,4.74
2023-02-12T07:13:55.793Z,4.75
2023-02-12T07:16:23.577Z,4.76
2023-02-12T07:18:51.016Z,4.77
2023-02-12T07:21:18.885Z,4.77
2023-02-12T07:23:50.874Z,4.80
2023-02-12T07:26:19.731Z,4.80
2023-02-12T07:28:47.003Z,4.80
2023-02-12T07:31:20.010Z,4.80
2023-02-12T07:33:48.729Z,4.83
2023-02-12T07:36:18.124Z,4.84
2023-02-12T07:38:46.005Z,4.85
2023-02-12T07:41:16.301Z,4.86
2023-02-12T07:43:45.480Z,4.88
2023-02-12T07:46:18.989Z,4.88
2023-02-12T07:48:47.069Z,4.91
2023-02-12T07:51:16.756Z,4.92
2023-02-12T07:53:44.045Z,4.92
2023-02-12T07:56:14.531Z,4.92
2023-02-12T07:58:45.098Z,4.92
2023-02-12T08:01:22.454Z,4.91
2023-02-12T08:03:53.642Z,4.91
2023-02-12T08:06:23.852Z,4.91
2023-02-12T08:08:57.082Z,4.93
2023-02-12T08:11:26.109Z,4.95
2023-02-12T08:13:53.701Z,4.98
2023-02-12T08:16:23.644Z,4.98
2023-02-12T08:18:52.466Z,4.98
2023-02-12T08:21:23.175Z,4.98
2023-02-12T08:23:50.893Z,4.99
2023-02-12T08:26:23.939Z,5.01
2023-02-12T08:28:54.380Z,5.03
2023-02-12T08:31:24.534Z,5.07
2023-02-12T08:33:53.826Z,5.11
2023-02-12T08:36:24.021Z,5.15
2023-02-12T08:38:51.981Z,5.19
2023-02-12T08:41:24.509Z,5.19
2023-02-12T08:43:56.928Z,5.22
2023-02-12T08:46:27.160Z,5.24
2023-02-12T08:49:00.393Z,5.26
2023-02-12T08:51:31.928Z,5.29
2023-02-12T08:54:01.909Z,5.32
2023-02-12T08:56:30.277Z,5.36
2023-02-12T08:58:59.003Z,5.37
2023-02-12T09:01:28.397Z,5.38
2023-02-12T09:03:57.162Z,5.42
2023-02-12T09:06:26.603Z,5.45
2023-02-12T09:08:55.554Z,5.47
2023-02-12T09:11:30.542Z,5.51
2023-02-12T09:14:00.853Z,5.55
2023-02-12T09:16:30.775Z,5.57
2023-02-12T09:18:58.393Z,5.62
2023-02-12T09:21:25.831Z,5.67
2023-02-12T09:23:53.477Z,5.74
2023-02-12T09:26:23.796Z,5.81
2023-02-12T09:28:53.750Z,5.87
2023-02-12T09:31:27.148Z,5.92
2023-02-12T09:33:58.498Z,5.98
2023-02-12T09:36:26.236Z,6.01
2023-02-12T09:38:56.723Z,6.04
2023-02-12T09:41:48.258Z,6.08
2023-02-12T09:44:23.123Z,6.12
2023-02-12T09:47:19.549Z,6.15
2023-02-12T09:50:10.962Z,6.17
2023-02-12T09:52:38.728Z,6.20
2023-02-12T09:55:06.608Z,6.22
2023-02-12T09:57:36.688Z,6.25
2023-02-12T10:00:16.189Z,6.30
2023-02-12T10:02:43.581Z,6.37
2023-02-12T10:05:25.943Z,6.41
2023-02-12T10:08:10.743Z,6.47
2023-02-12T10:10:50.834Z,6.52
2023-02-12T10:13:18.086Z,6.56
2023-02-12T10:16:13.180Z,6.59
2023-02-12T10:19:11.656Z,6.60
2023-02-12T10:22:04.279Z,6.66
2023-02-12T10:24:43.603Z,6.66
2023-02-12T10:27:18.242Z,6.69
2023-02-12T10:29:48.537Z,6.72
2023-02-12T10:32:28.078Z,6.74
2023-02-12T10:34:57.211Z,6.78
2023-02-12T10:37:57.658Z,6.81
2023-02-12T10:40:33.178Z,6.86
2023-02-12T10:43:02.364Z,6.92
2023-02-12T10:45:36.226Z,6.98
2023-02-12T10:48:20.733Z,7.00
2023-02-12T10:51:00.625Z,7.06
2023-02-12T10:53:38.760Z,7.08
2023-02-12T10:56:12.352Z,7.13
2023-02-12T10:58:59.773Z,7.17
2023-02-12T11:01:36.792Z,7.22
2023-02-12T11:04:31.431Z,7.26
2023-02-12T11:07:07.537Z,7.27
2023-02-12T11:09:45.382Z,7.28
2023-02-12T11:12:42.528Z,7.31
2023-02-12T11:15:19.509Z,7.38
2023-02-12T11:17:57.693Z,7.46
2023-02-12T11:20:41.628Z,7.52
2023-02-12T11:23:23.987Z,7.58
2023-02-12T11:26:24.205Z,7.61
2023-02-12T11:29:02.890Z,7.64
2023-02-12T11:31:35.241Z,7.67
2023-02-12T11:34:18.876Z,7.68
2023-02-12T11:36:49.939Z,7.72
2023-02-12T11:39:39.909Z,7.74
2023-02-12T11:42:18.405Z,7.79
2023-02-12T11:44:55.864Z,7.85
2023-02-12T11:47:30.834Z,7.89
2023-02-12T11:50:15.780Z,7.95
2023-02-12T11:52:43.868Z,8.00
2023-02-12T11:55:41.251Z,8.06
2023-02-12T11:58:17.749Z,8.13
2023-02-12T12:00:58.842Z,8.20
2023-02-12T12:03:32.315Z,8.28
2023-02-12T12:06:21.846Z,8.37
2023-02-12T12:09:16.004Z,8.44
2023-02-12T12:12:13.790Z,8.53
2023-02-12T12:15:11.385Z,8.61
2023-02-12T12:18:02.989Z,8.68
2023-02-12T12:20:38.781Z,8.74
2023-02-12T12:23:17.504Z,8.81
2023-02-12T12:26:04.363Z,8.82
2023-02-12T12:28:47.917Z,8.82
2023-02-12T12:31:19.655Z,8.80
2023-02-12T12:33:51.646Z,8.77
2023-02-12T12:36:57.128Z,8.75
2023-02-12T12:39:36.585Z,8.73
2023-02-12T12:42:22.850Z,8.70
2023-02-12T12:44:59.394Z,8.70
2023-02-12T12:47:52.864Z,8.73
2023-02-12T12:50:45.530Z,8.74
2023-02-12T12:53:46.278Z,8.75
2023-02-12T12:56:29.119Z,8.75
2023-02-12T12:59:45.552Z,8.74
2023-02-12T13:02:18.911Z,8.70
2023-02-12T13:05:10.417Z,8.67
2023-02-12T13:08:06.333Z,8.65
2023-02-12T13:11:00.844Z,8.65
2023-02-12T13:13:38.040Z,8.64
2023-02-12T13:16:17.004Z,8.63
2023-02-12T13:19:08.415Z,8.65
2023-02-12T13:22:22.339Z,8.66
2023-02-12T13:25:03.472Z,8.66
2023-02-12T13:27:36.117Z,8.67
2023-02-12T13:30:38.197Z,8.67
2023-02-12T13:33:25.645Z,8.65
2023-02-12T13:35:59.273Z,8.65
2023-02-12T13:38:46.308Z,8.64
2023-02-12T13:41:15.821Z,8.62
2023-02-12T13:43:58.719Z,8.61
2023-02-12T13:46:56.958Z,8.61
2023-02-12T13:49:30.350Z,8.58
2023-02-12T13:52:05.476Z,8.59
2023-02-12T13:55:11.317Z,8.59
2023-02-12T13:57:38.649Z,8.61
2023-02-12T14:00:26.547Z,8.61
2023-02-12T14:02:54.005Z,8.59
2023-02-12T14:05:28.470Z,8.58
2023-02-12T14:07:59.283Z,8.57
2023-02-12T14:10:29.437Z,8.56
2023-02-12T14:13:10.932Z,8.56
2023-02-12T14:15:44.484Z,8.56
2023-02-12T14:18:36.509Z,8.54
2023-02-12T14:21:28.588Z,8.52
2023-02-12T14:24:36.020Z,8.51
2023-02-12T14:27:08.276Z,8.45
2023-02-12T14:29:35.602Z,8.39
2023-02-12T14:32:03.089Z,8.36
2023-02-12T14:34:38.312Z,8.30
2023-02-12T14:37:35.993Z,8.27
2023-02-12T14:40:44.117Z,8.22
2023-02-12T14:43:31.411Z,8.15
2023-02-12T14:46:23.602Z,8.10
2023-02-12T14:48:50.985Z,8.07
2023-02-12T14:51:57.036Z,8.04
2023-02-12T14:54:30.430Z,8.02
2023-02-12T14:57:03.288Z,8.02
2023-02-12T14:59:34.800Z,8.00
2023-02-12T15:02:04.040Z,8.02
2023-02-12T15:04:36.773Z,8.01
2023-02-12T15:07:15.353Z,7.99
2023-02-12T15:09:58.069Z,7.99
2023-02-12T15:12:47.871Z,8.00
2023-02-12T15:15:42.393Z,8.01
2023-02-12T15:18:31.819Z,7.99
2023-02-12T15:21:21.865Z,7.98
2023-02-12T15:24:13.873Z,7.98
2023-02-12T15:26:48.172Z,7.97
2023-02-12T15:29:28.729Z,7.96
2023-02-12T15:31:59.672Z,7.95
2023-02-12T15:34:31.720Z,7.89
2023-02-12T15:37:01.740Z,7.85
2023-02-12T15:39:45.916Z,7.81
2023-02-12T15:42:33.467Z,7.78
2023-02-12T15:45:22.249Z,7.76
2023-02-12T15:48:07.719Z,7.73
2023-02-12T15:50:44.570Z,7.72
2023-02-12T15:53:13.581Z,7.70
2023-02-12T15:55:44.537Z,7.66
2023-02-12T15:58:22.589Z,7.63
2023-02-12T16:00:50.850Z,7.60
2023-02-12T16:03:33.334Z,7.57
2023-02-12T16:06:16.879Z,7.54
2023-02-12T16:08:47.898Z,7.51
2023-02-12T16:11:20.982Z,7.49
2023-02-12T16:13:59.280Z,7.48
2023-02-12T16:16:29.929Z,7.46
2023-02-12T16:19:16.217Z,7.45
2023-02-12T16:21:44.776Z,7.45
2023-02-12T16:24:25.446Z,7.44
2023-02-12T16:26:53.366Z,7.44
2023-02-12T16:29:21.111Z,7.41
2023-02-12T16:32:03.228Z,7.40
2023-02-12T16:34:37.251Z,7.39
2023-02-12T16:37:50.493Z,7.37
2023-02-12T16:40:22.265Z,7.35
2023-02-12T16:42:49.499Z,7.34
2023-02-12T16:45:29.762Z,7.33
2023-02-12T16:48:12.820Z,7.31
2023-02-12T16:50:58.097Z,7.31
2023-02-12T16:53:31.628Z,7.30
2023-02-12T16:56:00.340Z,7.29
2023-02-12T16:58:28.648Z,7.29
2023-02-12T17:00:58.801Z,7.28
2023-02-12T17:03:26.359Z,7.26
2023-02-12T17:05:53.684Z,7.27
2023-02-12T17:08:24.250Z,7.27
2023-02-12T17:10:52.369Z,7.27
2023-02-12T17:13:21.100Z,7.26
2023-02-12T17:16:01.780Z,7.25
2023-02-12T17:18:32.676Z,7.25
2023-02-12T17:21:03.487Z,7.24
2023-02-12T17:23:31.909Z,7.23
2023-02-12T17:25:59.485Z,7.23
2023-02-12T17:28:27.232Z,7.25
2023-02-12T17:31:02.753Z,7.26
2023-02-12T17:33:30.113Z,7.27
2023-02-12T17:35:58.804Z,7.27
2023-02-12T17:38:26.404Z,7.28
2023-02-12T17:41:14.519Z,7.28
2023-02-12T17:43:43.961Z,7.28
2023-02-12T17:46:14.221Z,7.29
2023-02-12T17:48:41.605Z,7.27
2023-02-12T17:51:11.556Z,7.27
2023-02-12T17:53:40.113Z,7.28
2023-02-12T17:56:16.842Z,7.28
2023-02-12T17:58:45.507Z,7.25
2023-02-12T18:01:16.151Z,7.22
2023-02-12T18:03:43.758Z,7.20
2023-02-12T18:06:14.202Z,7.19
2023-02-12T18:08:42.421Z,7.20
2023-02-12T18:11:11.743Z,7.20
2023-02-12T18:13:39.476Z,7.19
2023-02-12T18:16:09.544Z,7.18
2023-02-12T18:18:38.456Z,7.17
2023-02-12T18:21:14.700Z,7.16
2023-02-12T18:23:42.977Z,7.16
2023-02-12T18:26:16.034Z,7.15
2023-02-12T18:28:44.160Z,7.12
2023-02-12T18:31:12.412Z,7.11
2023-02-12T18:33:40.683Z,7.10
2023-02-12T18:36:17.357Z,7.10
2023-02-12T18:38:46.973Z,7.08
2023-02-12T18:41:25.422Z,7.09
2023-02-12T18:43:56.448Z,7.11
2023-02-12T18:46:30.254Z,7.09
2023-02-12T18:48:58.382Z,7.07
2023-02-12T18:51:28.970Z,7.08
2023-02-12T18:53:57.412Z,7.08
2023-02-12T18:56:24.776Z,7.09
2023-02-12T18:58:57.140Z,7.10
2023-02-12T19:01:25.853Z,7.10
2023-02-12T19:03:59.116Z,7.09
2023-02-12T19:06:28.450Z,7.08
2023-02-12T19:08:57.186Z,7.07
2023-02-12T19:11:25.019Z,7.06
2023-02-12T19:13:52.406Z,7.06
2023-02-12T19:16:22.070Z,7.06
2023-02-12T19:18:53.508Z,7.05
2023-02-12T19:21:22.240Z,7.03
2023-02-12T19:24:01.706Z,7.02
2023-02-12T19:26:30.301Z,7.02
2023-02-12T19:28:58.297Z,7.01
2023-02-12T19:31:31.924Z,6.99
2023-02-12T19:34:02.571Z,6.96
2023-02-12T19:36:32.859Z,6.93
2023-02-12T19:39:00.260Z,6.90
2023-02-12T19:41:29.607Z,6.89
2023-02-12T19:43:59.350Z,6.87
2023-02-12T19:46:28.934Z,6.85
2023-02-12T19:48:59.494Z,6.85
2023-02-12T19:51:29.572Z,6.84
2023-02-12T19:54:02.851Z,6.84
2023-02-12T19:56:31.021Z,6.82
2023-02-12T19:58:58.639Z,6.82
2023-02-12T20:01:27.168Z,6.81
2023-02-12T20:03:55.372Z,6.80
2023-02-12T20:06:34.814Z,6.81
2023-02-12T20:09:02.914Z,6.80
2023-02-12T20:11:32.622Z,6.79
2023-02-12T20:14:01.842Z,6.78
2023-02-12T20:16:38.072Z,6.79
2023-02-12T20:19:19.153Z,6.77
2023-02-12T20:21:51.099Z,6.76
2023-02-12T20:24:18.386Z,6.74
2023-02-12T20:26:45.646Z,6.73
2023-02-12T20:29:13.026Z,6.73
2023-02-12T20:31:40.513Z,6.73
2023-02-12T20:34:11.749Z,6.72
2023-02-12T20:36:40.761Z,6.72
2023-02-12T20:39:10.590Z,6.71
2023-02-12T20:41:38.070Z,6.71
2023-02-12T20:44:07.441Z,6.71
2023-02-12T20:46:39.613Z,6.71
2023-02-12T20:49:07.325Z,6.71
2023-02-12T20:51:35.235Z,6.70
2023-02-12T20:54:02.990Z,6.69
2023-02-12T20:56:33.313Z,6.68
2023-02-12T20:59:01.489Z,6.69
2023-02-12T21:01:33.113Z,6.67
2023-02-12T21:04:12.512Z,6.66
2023-02-12T21:06:41.531Z,6.67
2023-02-12T21:09:10.928Z,6.68
2023-02-12T21:11:39.864Z,6.69
2023-02-12T21:14:21.268Z,6.68
2023-02-12T21:16:49.740Z,6.69
2023-02-12T21:19:18.056Z,6.67
2023-02-12T21:21:46.389Z,6.68
2023-02-12T21:24:16.088Z,6.66
2023-02-12T21:26:43.812Z,6.64
2023-02-12T21:29:11.422Z,6.62
2023-02-12T21:31:44.346Z,6.60
2023-02-12T21:34:23.510Z,6.59
2023-02-12T21:36:53.859Z,6.58
2023-02-12T21:39:27.892Z,6.57
2023-02-12T21:42:02.889Z,6.56
2023-02-12T21:44:32.573Z,6.54
2023-02-12T21:47:00.258Z,6.52
2023-02-12T21:49:28.202Z,6.51
2023-02-12T21:51:59.279Z,6.50
2023-02-12T21:54:26.500Z,6.49
2023-02-12T21:56:53.669Z,6.47
2023-02-12T21:59:21.759Z,6.46
2023-02-12T22:01:52.255Z,6.44
2023-02-12T22:04:20.032Z,6.44
2023-02-12T22:06:49.996Z,6.44
2023-02-12T22:09:19.491Z,6.42
2023-02-12T22:11:47.184Z,6.42
2023-02-12T22:14:16.721Z,6.40
2023-02-12T22:16:44.641Z,6.40
2023-02-12T22:19:12.088Z,6.41
2023-02-12T22:21:41.418Z,6.41
2023-02-12T22:24:11.429Z,6.43
2023-02-12T22:26:38.705Z,6.44
2023-02-12T22:29:08.598Z,6.44
2023-02-12T22:31:39.463Z,6.45
2023-02-12T22:34:12.444Z,6.45
2023-02-12T22:36:40.582Z,6.43
2023-02-12T22:39:08.104Z,6.42
2023-02-12T22:41:35.436Z,6.42
2023-02-12T22:44:07.301Z,6.41
2023-02-12T22:46:36.149Z,6.40
2023-02-12T22:49:03.437Z,6.39
2023-02-12T22:51:32.406Z,6.37
2023-02-12T22:54:00.370Z,6.37
2023-02-12T22:56:27.847Z,6.37
2023-02-12T22:58:56.919Z,6.38
2023-02-12T23:01:24.645Z,6.37
2023-02-12T23:03:52.229Z,6.36
2023-02-12T23:06:22.092Z,6.35
2023-02-12T23:08:51.498Z,6.34
2023-02-12T23:11:19.732Z,6.33
2023-02-12T23:13:47.798Z,6.34
2023-02-12T23:16:15.151Z,6.34
2023-02-12T23:18:42.795Z,6.34
2023-02-12T23:21:10.075Z,6.30
2023-02-12T23:23:37.380Z,6.30
2023-02-12T23:26:04.758Z,6.30
2023-02-12T23:28:37.805Z,6.28
2023-02-12T23:31:09.306Z,6.28
2023-02-12T23:33:36.665Z,6.27
2023-02-12T23:36:04.245Z,6.25
2023-02-12T23:38:31.634Z,6.24
2023-02-12T23:40:59.146Z,6.23
2023-02-12T23:43:26.664Z,6.21
2023-02-12T23:45:54.004Z,6.20
2023-02-12T23:48:21.346Z,6.20
2023-02-12T23:50:49.905Z,6.19
2023-02-12T23:53:19.059Z,6.20
2023-02-12T23:55:50.162Z,6.19
2023-02-12T23:58:17.508Z,6.18
